• Join FlightAware (Why Join?)
  • Login
  • US Flag 
07:53PM EDT


 

Airport Tracker/Info


-or-


 

Live Flight TrackerFlight Track Log ✈ BOE236 ✈ 15-Aug-2012 ✈ KMYR - KCHS

Flight Track Log - Related Links

Times and Time Zones

All times are in EDT time to prevent confusion due to time zone crossing. See the BOE236 flight status page for this flight to view local times or setup timezone preferences in your user account.

Time Position Orientation Groundspeed Altitude Reporting Facility
EDT Latitude Longitude Course Direction KTS MPH feet Rate Location/Type
07:36PM 33.5438 -79.1093 229° Southwest  Level FlightAware Approximate
07:37PM 33.5171 -79.1465 229° Southwest  Level FlightAware Approximate
07:38PM 33.4903 -79.1837 232° Southwest  Level FlightAware Approximate
07:39PM 33.4652 -79.2218 229° Southwest  Level FlightAware Approximate
07:40PM 33.4384 -79.2589 229° Southwest  Level FlightAware Approximate
07:41PM 33.4115 -79.2959 221° Southwest  Level FlightAware Approximate
07:42PM 33.3820 -79.3271 229° Southwest  Level FlightAware Approximate
07:43PM 33.3553 -79.3644 229° Southwest  Level FlightAware Approximate
07:44PM 33.3287 -79.4016 229° Southwest  Level FlightAware Approximate
07:45PM 33.3020 -79.4389 231° Southwest  Level FlightAware Approximate
07:46PM 33.2770 -79.4754 229° Southwest  Level FlightAware Approximate
07:47PM 33.2503 -79.5126 229° Southwest  Level FlightAware Approximate
07:48PM 33.2235 -79.5497 229° Southwest  Level FlightAware Approximate
07:49PM 33.1968 -79.5868 229° Southwest  Level FlightAware Approximate
07:50PM 33.1700 -79.6238 233° Southwest  Level FlightAware Approximate
07:51PM 33.1458 -79.6625 244° Southwest  Level FlightAware Approximate
07:52PM 33.1283 -79.7061 226° Southwest  Level FlightAware Approximate
07:53PM 33.1000 -79.7415 226° Southwest  Level FlightAware Approximate
07:54PM 33.0718 -79.7769 227° Southwest  Level FlightAware Approximate
07:55PM 33.0439 -79.8121 235° Southwest  Level FlightAware Approximate
07:56PM 33.0207 -79.8522 229° Southwest  Level FlightAware Approximate
07:57PM 32.9941 -79.8892 220° Southwest  Level FlightAware Approximate
07:58PM 32.9627 -79.9206 221° Southwest  Level FlightAware Approximate
07:59PM 32.9318 -79.9525 221° Southwest  Level FlightAware Approximate